sensor_id;sensor_type;location;lat;lon;timestamp;P1;durP1;ratioP1;P2;durP2;ratioP2
44850;SDS011;30583;48.714;9.386;2024-02-21T00:00:39;13.70;;;7.53;;
44850;SDS011;30583;48.714;9.386;2024-02-21T00:03:06;19.42;;;7.55;;
44850;SDS011;30583;48.714;9.386;2024-02-21T00:05:32;17.30;;;7.32;;
44850;SDS011;30583;48.714;9.386;2024-02-21T00:07:58;14.18;;;8.18;;
44850;SDS011;30583;48.714;9.386;2024-02-21T00:10:25;13.15;;;7.75;;
44850;SDS011;30583;48.714;9.386;2024-02-21T00:12:51;15.35;;;8.05;;
44850;SDS011;30583;48.714;9.386;2024-02-21T00:15:17;15.80;;;7.50;;
44850;SDS011;30583;48.714;9.386;2024-02-21T00:17:43;21.55;;;8.07;;
44850;SDS011;30583;48.714;9.386;2024-02-21T00:20:09;14.80;;;7.28;;
44850;SDS011;30583;48.714;9.386;2024-02-21T00:22:35;15.93;;;7.55;;
44850;SDS011;30583;48.714;9.386;2024-02-21T00:25:01;16.05;;;8.77;;
44850;SDS011;30583;48.714;9.386;2024-02-21T00:27:27;15.25;;;9.13;;
44850;SDS011;30583;48.714;9.386;2024-02-21T00:29:53;18.50;;;8.32;;
44850;SDS011;30583;48.714;9.386;2024-02-21T00:32:18;17.38;;;9.05;;
44850;SDS011;30583;48.714;9.386;2024-02-21T00:34:44;13.68;;;8.57;;
44850;SDS011;30583;48.714;9.386;2024-02-21T00:37:09;16.85;;;8.45;;
44850;SDS011;30583;48.714;9.386;2024-02-21T00:39:35;19.20;;;8.30;;
44850;SDS011;30583;48.714;9.386;2024-02-21T00:42:02;15.95;;;8.13;;
44850;SDS011;30583;48.714;9.386;2024-02-21T00:44:27;16.88;;;8.82;;
44850;SDS011;30583;48.714;9.386;2024-02-21T00:46:53;13.95;;;7.90;;
44850;SDS011;30583;48.714;9.386;2024-02-21T00:49:19;13.63;;;8.45;;
44850;SDS011;30583;48.714;9.386;2024-02-21T00:51:44;18.80;;;9.55;;
44850;SDS011;30583;48.714;9.386;2024-02-21T00:54:10;14.02;;;7.72;;
44850;SDS011;30583;48.714;9.386;2024-02-21T00:56:35;14.32;;;8.30;;
44850;SDS011;30583;48.714;9.386;2024-02-21T00:59:01;18.52;;;8.75;;
44850;SDS011;30583;48.714;9.386;2024-02-21T01:01:27;16.83;;;9.25;;
44850;SDS011;30583;48.714;9.386;2024-02-21T01:03:52;15.35;;;9.32;;
44850;SDS011;30583;48.714;9.386;2024-02-21T01:06:19;16.67;;;9.18;;
44850;SDS011;30583;48.714;9.386;2024-02-21T01:08:46;18.05;;;9.05;;
44850;SDS011;30583;48.714;9.386;2024-02-21T01:11:12;17.10;;;8.98;;
44850;SDS011;30583;48.714;9.386;2024-02-21T01:13:38;18.60;;;9.02;;
44850;SDS011;30583;48.714;9.386;2024-02-21T01:16:04;15.32;;;9.23;;
44850;SDS011;30583;48.714;9.386;2024-02-21T01:18:31;19.17;;;9.07;;
44850;SDS011;30583;48.714;9.386;2024-02-21T01:20:58;20.25;;;10.02;;
44850;SDS011;30583;48.714;9.386;2024-02-21T01:23:24;17.92;;;9.80;;
44850;SDS011;30583;48.714;9.386;2024-02-21T01:25:49;20.00;;;10.48;;
44850;SDS011;30583;48.714;9.386;2024-02-21T01:28:15;20.70;;;11.30;;
44850;SDS011;30583;48.714;9.386;2024-02-21T01:30:41;19.45;;;9.95;;
44850;SDS011;30583;48.714;9.386;2024-02-21T01:33:06;16.45;;;9.88;;
44850;SDS011;30583;48.714;9.386;2024-02-21T01:35:32;19.75;;;10.18;;
44850;SDS011;30583;48.714;9.386;2024-02-21T01:37:57;17.73;;;9.48;;
44850;SDS011;30583;48.714;9.386;2024-02-21T01:40:23;16.77;;;8.95;;
44850;SDS011;30583;48.714;9.386;2024-02-21T01:42:48;13.50;;;7.95;;
44850;SDS011;30583;48.714;9.386;2024-02-21T01:45:14;12.98;;;7.95;;
44850;SDS011;30583;48.714;9.386;2024-02-21T01:47:40;14.60;;;7.63;;
44850;SDS011;30583;48.714;9.386;2024-02-21T01:50:05;13.48;;;7.53;;
44850;SDS011;30583;48.714;9.386;2024-02-21T01:52:31;16.30;;;6.97;;
44850;SDS011;30583;48.714;9.386;2024-02-21T01:55:00;15.02;;;7.32;;
44850;SDS011;30583;48.714;9.386;2024-02-21T01:57:26;13.63;;;7.45;;
44850;SDS011;30583;48.714;9.386;2024-02-21T01:59:54;11.55;;;7.40;;
44850;SDS011;30583;48.714;9.386;2024-02-21T02:02:19;17.55;;;7.00;;
44850;SDS011;30583;48.714;9.386;2024-02-21T02:04:46;15.70;;;7.80;;
44850;SDS011;30583;48.714;9.386;2024-02-21T02:07:11;14.30;;;7.03;;
44850;SDS011;30583;48.714;9.386;2024-02-21T02:09:37;16.00;;;7.13;;
44850;SDS011;30583;48.714;9.386;2024-02-21T02:12:02;18.33;;;7.50;;
44850;SDS011;30583;48.714;9.386;2024-02-21T02:14:28;15.98;;;7.10;;
44850;SDS011;30583;48.714;9.386;2024-02-21T02:16:54;16.13;;;7.15;;
44850;SDS011;30583;48.714;9.386;2024-02-21T02:19:19;14.60;;;7.35;;
44850;SDS011;30583;48.714;9.386;2024-02-21T02:21:53;14.18;;;6.82;;
44850;SDS011;30583;48.714;9.386;2024-02-21T02:24:22;14.13;;;6.70;;
44850;SDS011;30583;48.714;9.386;2024-02-21T02:26:51;10.45;;;6.93;;
44850;SDS011;30583;48.714;9.386;2024-02-21T02:29:16;13.20;;;6.60;;
44850;SDS011;30583;48.714;9.386;2024-02-21T02:31:42;14.95;;;7.32;;
44850;SDS011;30583;48.714;9.386;2024-02-21T02:34:08;15.10;;;7.82;;
44850;SDS011;30583;48.714;9.386;2024-02-21T02:36:35;13.73;;;6.78;;
44850;SDS011;30583;48.714;9.386;2024-02-21T02:39:01;16.35;;;6.63;;
44850;SDS011;30583;48.714;9.386;2024-02-21T02:41:27;15.80;;;6.60;;
44850;SDS011;30583;48.714;9.386;2024-02-21T02:43:52;13.43;;;6.18;;
44850;SDS011;30583;48.714;9.386;2024-02-21T02:46:18;14.68;;;6.78;;
44850;SDS011;30583;48.714;9.386;2024-02-21T02:48:43;13.40;;;6.68;;
44850;SDS011;30583;48.714;9.386;2024-02-21T02:51:10;12.20;;;6.10;;
44850;SDS011;30583;48.714;9.386;2024-02-21T02:53:35;12.73;;;6.18;;
44850;SDS011;30583;48.714;9.386;2024-02-21T02:56:01;12.90;;;6.07;;
44850;SDS011;30583;48.714;9.386;2024-02-21T02:58:27;13.73;;;7.03;;
44850;SDS011;30583;48.714;9.386;2024-02-21T03:00:53;16.33;;;7.75;;
44850;SDS011;30583;48.714;9.386;2024-02-21T03:03:18;16.63;;;7.53;;
44850;SDS011;30583;48.714;9.386;2024-02-21T03:05:44;14.48;;;7.10;;
44850;SDS011;30583;48.714;9.386;2024-02-21T03:08:10;14.50;;;6.75;;
44850;SDS011;30583;48.714;9.386;2024-02-21T03:10:36;17.48;;;7.20;;
44850;SDS011;30583;48.714;9.386;2024-02-21T03:13:01;15.10;;;7.47;;
44850;SDS011;30583;48.714;9.386;2024-02-21T03:15:27;14.55;;;6.90;;
44850;SDS011;30583;48.714;9.386;2024-02-21T03:17:52;15.32;;;6.95;;
44850;SDS011;30583;48.714;9.386;2024-02-21T03:20:18;17.25;;;6.53;;
44850;SDS011;30583;48.714;9.386;2024-02-21T03:22:44;17.83;;;6.28;;
44850;SDS011;30583;48.714;9.386;2024-02-21T03:25:10;12.43;;;6.50;;
44850;SDS011;30583;48.714;9.386;2024-02-21T03:27:36;12.95;;;6.78;;
44850;SDS011;30583;48.714;9.386;2024-02-21T03:30:02;14.30;;;6.45;;
44850;SDS011;30583;48.714;9.386;2024-02-21T03:32:29;10.63;;;5.40;;
44850;SDS011;30583;48.714;9.386;2024-02-21T03:34:55;11.80;;;5.43;;
44850;SDS011;30583;48.714;9.386;2024-02-21T03:37:20;9.45;;;5.03;;
44850;SDS011;30583;48.714;9.386;2024-02-21T03:39:46;13.27;;;5.53;;
44850;SDS011;30583;48.714;9.386;2024-02-21T03:42:12;13.35;;;5.50;;
44850;SDS011;30583;48.714;9.386;2024-02-21T03:44:37;13.90;;;5.80;;
44850;SDS011;30583;48.714;9.386;2024-02-21T03:47:03;11.52;;;5.47;;
44850;SDS011;30583;48.714;9.386;2024-02-21T03:49:29;12.93;;;5.03;;
44850;SDS011;30583;48.714;9.386;2024-02-21T03:51:54;14.00;;;5.60;;
44850;SDS011;30583;48.714;9.386;2024-02-21T03:54:21;11.98;;;5.80;;
44850;SDS011;30583;48.714;9.386;2024-02-21T03:56:46;13.43;;;6.10;;
44850;SDS011;30583;48.714;9.386;2024-02-21T03:59:15;15.90;;;6.82;;
44850;SDS011;30583;48.714;9.386;2024-02-21T04:01:40;15.93;;;7.45;;
44850;SDS011;30583;48.714;9.386;2024-02-21T04:04:06;16.83;;;7.25;;
44850;SDS011;30583;48.714;9.386;2024-02-21T04:06:32;14.70;;;6.80;;
44850;SDS011;30583;48.714;9.386;2024-02-21T04:08:58;13.07;;;6.55;;
44850;SDS011;30583;48.714;9.386;2024-02-21T04:11:23;12.52;;;6.28;;
44850;SDS011;30583;48.714;9.386;2024-02-21T04:13:49;14.13;;;6.10;;
44850;SDS011;30583;48.714;9.386;2024-02-21T04:16:16;17.70;;;7.00;;
44850;SDS011;30583;48.714;9.386;2024-02-21T04:18:42;17.42;;;7.70;;
44850;SDS011;30583;48.714;9.386;2024-02-21T04:21:08;23.00;;;10.02;;
44850;SDS011;30583;48.714;9.386;2024-02-21T04:23:34;52.38;;;30.38;;
44850;SDS011;30583;48.714;9.386;2024-02-21T04:26:00;30.88;;;18.55;;
44850;SDS011;30583;48.714;9.386;2024-02-21T04:28:26;21.10;;;11.75;;
44850;SDS011;30583;48.714;9.386;2024-02-21T04:30:51;17.80;;;10.25;;
44850;SDS011;30583;48.714;9.386;2024-02-21T04:33:17;16.45;;;9.45;;
44850;SDS011;30583;48.714;9.386;2024-02-21T04:35:43;17.67;;;8.48;;
44850;SDS011;30583;48.714;9.386;2024-02-21T04:38:09;17.13;;;9.10;;
44850;SDS011;30583;48.714;9.386;2024-02-21T04:40:35;20.08;;;9.45;;
44850;SDS011;30583;48.714;9.386;2024-02-21T04:43:00;16.90;;;7.65;;
44850;SDS011;30583;48.714;9.386;2024-02-21T04:45:26;14.23;;;7.35;;
44850;SDS011;30583;48.714;9.386;2024-02-21T04:47:51;12.98;;;6.70;;
44850;SDS011;30583;48.714;9.386;2024-02-21T04:50:17;15.00;;;6.13;;
44850;SDS011;30583;48.714;9.386;2024-02-21T04:52:43;11.57;;;6.20;;
44850;SDS011;30583;48.714;9.386;2024-02-21T04:55:08;12.45;;;5.93;;
44850;SDS011;30583;48.714;9.386;2024-02-21T04:57:34;14.68;;;6.55;;
44850;SDS011;30583;48.714;9.386;2024-02-21T04:59:59;15.85;;;6.40;;
44850;SDS011;30583;48.714;9.386;2024-02-21T05:02:25;12.65;;;6.30;;
44850;SDS011;30583;48.714;9.386;2024-02-21T05:04:52;13.02;;;6.47;;
44850;SDS011;30583;48.714;9.386;2024-02-21T05:07:18;17.08;;;9.40;;
44850;SDS011;30583;48.714;9.386;2024-02-21T05:09:44;13.25;;;7.13;;
44850;SDS011;30583;48.714;9.386;2024-02-21T05:12:10;12.63;;;6.50;;
44850;SDS011;30583;48.714;9.386;2024-02-21T05:14:36;12.40;;;6.32;;
44850;SDS011;30583;48.714;9.386;2024-02-21T05:17:02;13.70;;;6.15;;
44850;SDS011;30583;48.714;9.386;2024-02-21T05:19:28;13.55;;;6.40;;
44850;SDS011;30583;48.714;9.386;2024-02-21T05:21:54;17.00;;;6.85;;
44850;SDS011;30583;48.714;9.386;2024-02-21T05:24:19;14.13;;;6.80;;
44850;SDS011;30583;48.714;9.386;2024-02-21T05:26:45;14.05;;;7.35;;
44850;SDS011;30583;48.714;9.386;2024-02-21T05:29:11;14.35;;;7.20;;
44850;SDS011;30583;48.714;9.386;2024-02-21T05:32:10;15.23;;;7.00;;
44850;SDS011;30583;48.714;9.386;2024-02-21T05:34:28;16.58;;;8.88;;
44850;SDS011;30583;48.714;9.386;2024-02-21T05:36:54;18.10;;;8.02;;
44850;SDS011;30583;48.714;9.386;2024-02-21T05:39:20;17.00;;;9.88;;
44850;SDS011;30583;48.714;9.386;2024-02-21T05:41:47;15.77;;;8.25;;
44850;SDS011;30583;48.714;9.386;2024-02-21T05:44:13;15.20;;;7.50;;
44850;SDS011;30583;48.714;9.386;2024-02-21T05:46:39;16.35;;;7.43;;
44850;SDS011;30583;48.714;9.386;2024-02-21T05:49:04;13.73;;;7.55;;
44850;SDS011;30583;48.714;9.386;2024-02-21T05:51:34;14.60;;;7.10;;
44850;SDS011;30583;48.714;9.386;2024-02-21T05:54:00;14.45;;;8.25;;
44850;SDS011;30583;48.714;9.386;2024-02-21T05:56:26;13.73;;;7.80;;
44850;SDS011;30583;48.714;9.386;2024-02-21T05:58:52;16.50;;;7.45;;
44850;SDS011;30583;48.714;9.386;2024-02-21T06:01:17;14.65;;;8.18;;
44850;SDS011;30583;48.714;9.386;2024-02-21T06:03:43;19.10;;;8.45;;
44850;SDS011;30583;48.714;9.386;2024-02-21T06:06:09;22.15;;;10.45;;
44850;SDS011;30583;48.714;9.386;2024-02-21T06:08:34;20.52;;;12.02;;
44850;SDS011;30583;48.714;9.386;2024-02-21T06:11:00;23.80;;;13.27;;
44850;SDS011;30583;48.714;9.386;2024-02-21T06:13:26;18.80;;;11.50;;
44850;SDS011;30583;48.714;9.386;2024-02-21T06:15:52;19.17;;;10.38;;
44850;SDS011;30583;48.714;9.386;2024-02-21T06:18:18;10.85;;;5.78;;
44850;SDS011;30583;48.714;9.386;2024-02-21T06:20:44;13.13;;;5.50;;
44850;SDS011;30583;48.714;9.386;2024-02-21T06:23:11;12.98;;;7.10;;
44850;SDS011;30583;48.714;9.386;2024-02-21T06:25:37;10.73;;;7.63;;
44850;SDS011;30583;48.714;9.386;2024-02-21T06:28:03;15.27;;;7.43;;
44850;SDS011;30583;48.714;9.386;2024-02-21T06:30:29;12.63;;;6.88;;
44850;SDS011;30583;48.714;9.386;2024-02-21T06:32:55;12.45;;;6.32;;
44850;SDS011;30583;48.714;9.386;2024-02-21T06:35:21;12.55;;;5.88;;
44850;SDS011;30583;48.714;9.386;2024-02-21T06:37:46;10.77;;;6.30;;
44850;SDS011;30583;48.714;9.386;2024-02-21T06:40:16;9.95;;;5.82;;
44850;SDS011;30583;48.714;9.386;2024-02-21T06:42:46;12.45;;;6.35;;
44850;SDS011;30583;48.714;9.386;2024-02-21T06:45:11;13.75;;;6.00;;
44850;SDS011;30583;48.714;9.386;2024-02-21T06:47:37;14.82;;;6.18;;
44850;SDS011;30583;48.714;9.386;2024-02-21T06:50:11;13.10;;;6.05;;
44850;SDS011;30583;48.714;9.386;2024-02-21T06:52:43;13.68;;;6.32;;
44850;SDS011;30583;48.714;9.386;2024-02-21T06:55:08;13.40;;;7.28;;
44850;SDS011;30583;48.714;9.386;2024-02-21T06:57:34;10.63;;;6.03;;
44850;SDS011;30583;48.714;9.386;2024-02-21T06:59:59;16.65;;;5.80;;
44850;SDS011;30583;48.714;9.386;2024-02-21T07:02:25;10.85;;;5.50;;
44850;SDS011;30583;48.714;9.386;2024-02-21T07:04:51;11.52;;;6.03;;
44850;SDS011;30583;48.714;9.386;2024-02-21T07:07:16;12.13;;;6.18;;
44850;SDS011;30583;48.714;9.386;2024-02-21T07:09:42;13.48;;;5.55;;
44850;SDS011;30583;48.714;9.386;2024-02-21T07:12:07;12.82;;;5.88;;
44850;SDS011;30583;48.714;9.386;2024-02-21T07:14:33;11.50;;;5.68;;
44850;SDS011;30583;48.714;9.386;2024-02-21T07:17:00;11.90;;;6.00;;
44850;SDS011;30583;48.714;9.386;2024-02-21T07:19:26;15.63;;;7.13;;
44850;SDS011;30583;48.714;9.386;2024-02-21T07:21:51;12.13;;;6.28;;
44850;SDS011;30583;48.714;9.386;2024-02-21T07:24:17;13.77;;;7.25;;
44850;SDS011;30583;48.714;9.386;2024-02-21T07:26:42;11.88;;;6.43;;
44850;SDS011;30583;48.714;9.386;2024-02-21T07:29:08;15.98;;;7.60;;
44850;SDS011;30583;48.714;9.386;2024-02-21T07:31:43;14.07;;;7.85;;
44850;SDS011;30583;48.714;9.386;2024-02-21T07:34:10;19.17;;;7.90;;
44850;SDS011;30583;48.714;9.386;2024-02-21T07:36:35;17.15;;;8.60;;
44850;SDS011;30583;48.714;9.386;2024-02-21T07:39:04;21.17;;;8.32;;
44850;SDS011;30583;48.714;9.386;2024-02-21T07:41:31;22.23;;;8.07;;
44850;SDS011;30583;48.714;9.386;2024-02-21T07:43:59;18.45;;;8.13;;
44850;SDS011;30583;48.714;9.386;2024-02-21T07:46:25;22.02;;;9.73;;
44850;SDS011;30583;48.714;9.386;2024-02-21T07:48:50;17.20;;;8.35;;
44850;SDS011;30583;48.714;9.386;2024-02-21T07:51:16;19.38;;;8.93;;
44850;SDS011;30583;48.714;9.386;2024-02-21T07:53:43;22.35;;;8.57;;
44850;SDS011;30583;48.714;9.386;2024-02-21T07:56:12;28.60;;;9.15;;
44850;SDS011;30583;48.714;9.386;2024-02-21T07:58:39;22.45;;;9.25;;
44850;SDS011;30583;48.714;9.386;2024-02-21T08:01:08;27.17;;;8.20;;
44850;SDS011;30583;48.714;9.386;2024-02-21T08:03:34;23.67;;;7.10;;
44850;SDS011;30583;48.714;9.386;2024-02-21T08:06:00;19.45;;;8.55;;
44850;SDS011;30583;48.714;9.386;2024-02-21T08:08:25;18.15;;;7.00;;
44850;SDS011;30583;48.714;9.386;2024-02-21T08:10:51;22.88;;;7.10;;
44850;SDS011;30583;48.714;9.386;2024-02-21T08:13:17;17.33;;;6.65;;
44850;SDS011;30583;48.714;9.386;2024-02-21T08:15:42;16.23;;;7.00;;
44850;SDS011;30583;48.714;9.386;2024-02-21T08:18:08;20.65;;;7.63;;
44850;SDS011;30583;48.714;9.386;2024-02-21T08:20:34;17.38;;;7.07;;
44850;SDS011;30583;48.714;9.386;2024-02-21T08:23:00;20.63;;;7.80;;
44850;SDS011;30583;48.714;9.386;2024-02-21T08:25:25;19.35;;;6.60;;
44850;SDS011;30583;48.714;9.386;2024-02-21T08:27:51;17.08;;;6.45;;
44850;SDS011;30583;48.714;9.386;2024-02-21T08:30:19;15.52;;;6.07;;
44850;SDS011;30583;48.714;9.386;2024-02-21T08:32:45;13.65;;;6.35;;
44850;SDS011;30583;48.714;9.386;2024-02-21T08:35:11;17.38;;;6.28;;
44850;SDS011;30583;48.714;9.386;2024-02-21T08:37:37;15.88;;;6.57;;
44850;SDS011;30583;48.714;9.386;2024-02-21T08:40:03;16.60;;;7.20;;
44850;SDS011;30583;48.714;9.386;2024-02-21T08:42:34;18.63;;;6.05;;
44850;SDS011;30583;48.714;9.386;2024-02-21T08:45:00;11.10;;;5.20;;
44850;SDS011;30583;48.714;9.386;2024-02-21T08:47:26;12.82;;;5.03;;
44850;SDS011;30583;48.714;9.386;2024-02-21T08:49:52;12.18;;;4.85;;
44850;SDS011;30583;48.714;9.386;2024-02-21T08:52:17;12.70;;;5.13;;
44850;SDS011;30583;48.714;9.386;2024-02-21T08:54:43;12.68;;;4.47;;
44850;SDS011;30583;48.714;9.386;2024-02-21T08:57:09;12.15;;;4.95;;
44850;SDS011;30583;48.714;9.386;2024-02-21T08:59:34;10.80;;;5.10;;
44850;SDS011;30583;48.714;9.386;2024-02-21T09:02:00;10.55;;;4.53;;
44850;SDS011;30583;48.714;9.386;2024-02-21T09:04:27;12.48;;;5.30;;
44850;SDS011;30583;48.714;9.386;2024-02-21T09:06:53;12.23;;;5.28;;
44850;SDS011;30583;48.714;9.386;2024-02-21T09:09:19;12.00;;;5.15;;
44850;SDS011;30583;48.714;9.386;2024-02-21T09:11:45;10.45;;;5.00;;
44850;SDS011;30583;48.714;9.386;2024-02-21T09:14:10;12.98;;;5.82;;
44850;SDS011;30583;48.714;9.386;2024-02-21T09:16:36;10.75;;;5.20;;
44850;SDS011;30583;48.714;9.386;2024-02-21T09:19:02;12.90;;;4.90;;
44850;SDS011;30583;48.714;9.386;2024-02-21T09:21:28;11.30;;;4.32;;
44850;SDS011;30583;48.714;9.386;2024-02-21T09:23:53;13.02;;;5.07;;
44850;SDS011;30583;48.714;9.386;2024-02-21T09:26:19;14.05;;;5.00;;
44850;SDS011;30583;48.714;9.386;2024-02-21T09:28:45;10.68;;;5.32;;
44850;SDS011;30583;48.714;9.386;2024-02-21T09:31:10;11.60;;;5.35;;
44850;SDS011;30583;48.714;9.386;2024-02-21T09:33:36;8.75;;;4.32;;
44850;SDS011;30583;48.714;9.386;2024-02-21T09:36:02;11.57;;;4.90;;
44850;SDS011;30583;48.714;9.386;2024-02-21T09:38:30;10.60;;;4.28;;
44850;SDS011;30583;48.714;9.386;2024-02-21T09:40:59;13.25;;;4.90;;
44850;SDS011;30583;48.714;9.386;2024-02-21T09:43:33;9.25;;;4.50;;
44850;SDS011;30583;48.714;9.386;2024-02-21T09:45:59;12.82;;;4.53;;
44850;SDS011;30583;48.714;9.386;2024-02-21T09:48:30;12.57;;;5.10;;
44850;SDS011;30583;48.714;9.386;2024-02-21T09:51:11;11.98;;;4.70;;
44850;SDS011;30583;48.714;9.386;2024-02-21T09:53:39;11.25;;;4.32;;
44850;SDS011;30583;48.714;9.386;2024-02-21T09:56:09;14.30;;;4.45;;
44850;SDS011;30583;48.714;9.386;2024-02-21T09:58:36;9.02;;;4.18;;
44850;SDS011;30583;48.714;9.386;2024-02-21T10:01:02;11.10;;;4.20;;
44850;SDS011;30583;48.714;9.386;2024-02-21T10:03:31;11.30;;;4.75;;
44850;SDS011;30583;48.714;9.386;2024-02-21T10:05:58;9.15;;;3.90;;
44850;SDS011;30583;48.714;9.386;2024-02-21T10:08:25;11.50;;;4.10;;
44850;SDS011;30583;48.714;9.386;2024-02-21T10:10:51;12.52;;;4.70;;
44850;SDS011;30583;48.714;9.386;2024-02-21T10:13:27;11.93;;;4.03;;
44850;SDS011;30583;48.714;9.386;2024-02-21T10:16:06;14.15;;;7.22;;
44850;SDS011;30583;48.714;9.386;2024-02-21T10:18:33;16.48;;;4.60;;
44850;SDS011;30583;48.714;9.386;2024-02-21T10:21:04;9.75;;;4.75;;
44850;SDS011;30583;48.714;9.386;2024-02-21T10:23:44;11.85;;;4.57;;
44850;SDS011;30583;48.714;9.386;2024-02-21T10:26:11;7.55;;;3.10;;
44850;SDS011;30583;48.714;9.386;2024-02-21T10:28:37;8.13;;;3.00;;
44850;SDS011;30583;48.714;9.386;2024-02-21T10:31:10;7.13;;;2.47;;
44850;SDS011;30583;48.714;9.386;2024-02-21T10:33:37;7.57;;;2.25;;
44850;SDS011;30583;48.714;9.386;2024-02-21T10:36:09;7.70;;;2.60;;
44850;SDS011;30583;48.714;9.386;2024-02-21T10:38:36;5.10;;;1.80;;
44850;SDS011;30583;48.714;9.386;2024-02-21T10:41:02;5.70;;;2.03;;
44850;SDS011;30583;48.714;9.386;2024-02-21T10:43:40;7.93;;;2.55;;
44850;SDS011;30583;48.714;9.386;2024-02-21T10:46:07;10.82;;;3.42;;
44850;SDS011;30583;48.714;9.386;2024-02-21T10:49:17;10.07;;;2.42;;
44850;SDS011;30583;48.714;9.386;2024-02-21T10:51:29;6.97;;;2.25;;
44850;SDS011;30583;48.714;9.386;2024-02-21T10:54:15;7.15;;;2.00;;
44850;SDS011;30583;48.714;9.386;2024-02-21T10:56:44;9.98;;;2.92;;
44850;SDS011;30583;48.714;9.386;2024-02-21T10:59:11;21.33;;;11.23;;
44850;SDS011;30583;48.714;9.386;2024-02-21T11:01:38;8.43;;;3.70;;
44850;SDS011;30583;48.714;9.386;2024-02-21T11:04:05;7.70;;;2.45;;
44850;SDS011;30583;48.714;9.386;2024-02-21T11:06:32;8.50;;;2.03;;
44850;SDS011;30583;48.714;9.386;2024-02-21T11:09:09;8.57;;;2.70;;
44850;SDS011;30583;48.714;9.386;2024-02-21T11:11:36;6.03;;;1.88;;
44850;SDS011;30583;48.714;9.386;2024-02-21T11:14:07;6.05;;;2.30;;
44850;SDS011;30583;48.714;9.386;2024-02-21T11:16:37;5.28;;;1.95;;
44850;SDS011;30583;48.714;9.386;2024-02-21T11:19:26;4.75;;;1.92;;
44850;SDS011;30583;48.714;9.386;2024-02-21T11:21:51;5.78;;;1.80;;
44850;SDS011;30583;48.714;9.386;2024-02-21T11:24:34;6.50;;;2.50;;
44850;SDS011;30583;48.714;9.386;2024-02-21T11:27:09;6.15;;;2.10;;
44850;SDS011;30583;48.714;9.386;2024-02-21T11:29:47;5.72;;;2.00;;
44850;SDS011;30583;48.714;9.386;2024-02-21T11:32:16;6.00;;;1.95;;
44850;SDS011;30583;48.714;9.386;2024-02-21T11:35:04;5.78;;;1.90;;
44850;SDS011;30583;48.714;9.386;2024-02-21T11:37:31;5.50;;;1.95;;
44850;SDS011;30583;48.714;9.386;2024-02-21T11:40:03;7.60;;;1.93;;
44850;SDS011;30583;48.714;9.386;2024-02-21T11:42:32;5.93;;;2.53;;
44850;SDS011;30583;48.714;9.386;2024-02-21T11:44:57;6.38;;;2.03;;
44850;SDS011;30583;48.714;9.386;2024-02-21T11:47:24;4.10;;;1.48;;
44850;SDS011;30583;48.714;9.386;2024-02-21T11:49:50;6.90;;;1.90;;
44850;SDS011;30583;48.714;9.386;2024-02-21T11:52:19;4.85;;;1.70;;
44850;SDS011;30583;48.714;9.386;2024-02-21T11:54:50;7.65;;;2.20;;
44850;SDS011;30583;48.714;9.386;2024-02-21T11:57:17;6.32;;;2.15;;
44850;SDS011;30583;48.714;9.386;2024-02-21T11:59:44;8.35;;;1.90;;
44850;SDS011;30583;48.714;9.386;2024-02-21T12:02:11;5.13;;;1.95;;
44850;SDS011;30583;48.714;9.386;2024-02-21T12:04:37;6.00;;;2.30;;
44850;SDS011;30583;48.714;9.386;2024-02-21T12:07:03;7.90;;;2.65;;
44850;SDS011;30583;48.714;9.386;2024-02-21T12:09:29;5.63;;;2.17;;
44850;SDS011;30583;48.714;9.386;2024-02-21T12:14:24;4.90;;;1.77;;
44850;SDS011;30583;48.714;9.386;2024-02-21T12:16:50;6.88;;;1.95;;
44850;SDS011;30583;48.714;9.386;2024-02-21T12:19:16;7.97;;;2.33;;
44850;SDS011;30583;48.714;9.386;2024-02-21T12:21:42;5.90;;;1.52;;
44850;SDS011;30583;48.714;9.386;2024-02-21T12:24:15;6.18;;;1.70;;
44850;SDS011;30583;48.714;9.386;2024-02-21T12:26:47;5.43;;;1.73;;
44850;SDS011;30583;48.714;9.386;2024-02-21T12:29:12;6.68;;;2.03;;
44850;SDS011;30583;48.714;9.386;2024-02-21T12:31:38;7.95;;;2.08;;
44850;SDS011;30583;48.714;9.386;2024-02-21T12:34:04;5.35;;;1.40;;
44850;SDS011;30583;48.714;9.386;2024-02-21T12:36:30;6.78;;;2.10;;
44850;SDS011;30583;48.714;9.386;2024-02-21T12:38:57;7.88;;;2.00;;
44850;SDS011;30583;48.714;9.386;2024-02-21T12:41:22;7.10;;;2.60;;
44850;SDS011;30583;48.714;9.386;2024-02-21T12:43:50;4.68;;;1.50;;
44850;SDS011;30583;48.714;9.386;2024-02-21T12:46:16;9.20;;;2.15;;
44850;SDS011;30583;48.714;9.386;2024-02-21T12:48:41;5.40;;;2.03;;
44850;SDS011;30583;48.714;9.386;2024-02-21T12:51:07;4.50;;;1.67;;
44850;SDS011;30583;48.714;9.386;2024-02-21T12:53:33;7.68;;;1.73;;
44850;SDS011;30583;48.714;9.386;2024-02-21T12:55:59;8.30;;;2.38;;
44850;SDS011;30583;48.714;9.386;2024-02-21T12:58:24;6.10;;;1.58;;
44850;SDS011;30583;48.714;9.386;2024-02-21T13:00:50;6.35;;;1.90;;
44850;SDS011;30583;48.714;9.386;2024-02-21T13:03:16;5.78;;;1.65;;
44850;SDS011;30583;48.714;9.386;2024-02-21T13:05:41;5.32;;;1.48;;
44850;SDS011;30583;48.714;9.386;2024-02-21T13:08:08;4.70;;;1.60;;
44850;SDS011;30583;48.714;9.386;2024-02-21T13:10:34;5.43;;;1.60;;
44850;SDS011;30583;48.714;9.386;2024-02-21T13:13:02;5.82;;;1.95;;
44850;SDS011;30583;48.714;9.386;2024-02-21T13:15:28;4.32;;;1.70;;
44850;SDS011;30583;48.714;9.386;2024-02-21T13:17:55;6.25;;;2.15;;
44850;SDS011;30583;48.714;9.386;2024-02-21T13:20:22;4.53;;;1.70;;
44850;SDS011;30583;48.714;9.386;2024-02-21T13:22:48;8.38;;;2.10;;
44850;SDS011;30583;48.714;9.386;2024-02-21T13:25:14;6.32;;;1.75;;
44850;SDS011;30583;48.714;9.386;2024-02-21T13:27:43;7.97;;;3.10;;
44850;SDS011;30583;48.714;9.386;2024-02-21T13:30:09;6.47;;;2.17;;
44850;SDS011;30583;48.714;9.386;2024-02-21T13:32:35;5.85;;;2.33;;
44850;SDS011;30583;48.714;9.386;2024-02-21T13:35:00;5.18;;;1.95;;
44850;SDS011;30583;48.714;9.386;2024-02-21T13:37:26;5.60;;;1.60;;
44850;SDS011;30583;48.714;9.386;2024-02-21T13:39:53;5.85;;;1.60;;
44850;SDS011;30583;48.714;9.386;2024-02-21T13:42:19;7.05;;;2.80;;
44850;SDS011;30583;48.714;9.386;2024-02-21T13:44:45;8.23;;;2.25;;
44850;SDS011;30583;48.714;9.386;2024-02-21T13:47:12;11.20;;;3.33;;
44850;SDS011;30583;48.714;9.386;2024-02-21T13:49:39;6.28;;;2.45;;
44850;SDS011;30583;48.714;9.386;2024-02-21T13:52:05;4.95;;;1.80;;
44850;SDS011;30583;48.714;9.386;2024-02-21T13:54:31;4.18;;;1.55;;
44850;SDS011;30583;48.714;9.386;2024-02-21T13:56:56;5.97;;;1.70;;
44850;SDS011;30583;48.714;9.386;2024-02-21T13:59:22;4.60;;;2.15;;
44850;SDS011;30583;48.714;9.386;2024-02-21T14:01:47;7.38;;;1.88;;
44850;SDS011;30583;48.714;9.386;2024-02-21T14:04:13;8.02;;;4.25;;
44850;SDS011;30583;48.714;9.386;2024-02-21T14:06:38;7.07;;;2.80;;
44850;SDS011;30583;48.714;9.386;2024-02-21T14:09:08;7.30;;;2.15;;
44850;SDS011;30583;48.714;9.386;2024-02-21T14:11:34;6.60;;;2.10;;
44850;SDS011;30583;48.714;9.386;2024-02-21T14:14:00;4.63;;;2.05;;
44850;SDS011;30583;48.714;9.386;2024-02-21T14:16:26;6.03;;;1.90;;
44850;SDS011;30583;48.714;9.386;2024-02-21T14:18:51;4.40;;;1.88;;
44850;SDS011;30583;48.714;9.386;2024-02-21T14:21:19;4.70;;;2.10;;
44850;SDS011;30583;48.714;9.386;2024-02-21T14:23:44;7.88;;;1.88;;
44850;SDS011;30583;48.714;9.386;2024-02-21T14:26:10;5.47;;;2.47;;
44850;SDS011;30583;48.714;9.386;2024-02-21T14:28:37;6.80;;;2.08;;
44850;SDS011;30583;48.714;9.386;2024-02-21T14:31:02;8.50;;;1.88;;
44850;SDS011;30583;48.714;9.386;2024-02-21T14:33:30;9.98;;;3.05;;
44850;SDS011;30583;48.714;9.386;2024-02-21T14:35:56;6.35;;;2.30;;
44850;SDS011;30583;48.714;9.386;2024-02-21T14:38:22;8.30;;;2.40;;